Time;durP1;ratioP1;P1;durP2;ratioP2;P2;SDS_P1;SDS_P2;PMS_P1;PMS_P2;Temp;Humidity;BMP_temperature;BMP_pressure;BME280_temperature;BME280_humidity;BME280_pressure;Samples;Min_cycle;Max_cycle;Signal;HPM_P1;HPM_P2
2023/09/07 00:00:15;;;;;;;2.08;1.20;;;26.60;52.30;;;;;;5034112;28;20096;-64
2023/09/07 00:02:41;;;;;;;2.00;1.35;;;26.60;52.30;;;;;;5032885;28;20049;-64
2023/09/07 00:05:08;;;;;;;2.50;1.35;;;26.60;52.30;;;;;;5032048;28;20022;-65
2023/09/07 00:07:35;;;;;;;1.55;1.40;;;26.60;52.30;;;;;;5028679;28;20083;-64
2023/09/07 00:10:01;;;;;;;1.85;1.35;;;26.60;52.30;;;;;;5041963;28;20937;-64
2023/09/07 00:12:27;;;;;;;1.83;1.42;;;26.60;52.30;;;;;;5036809;28;20043;-64
2023/09/07 00:14:54;;;;;;;1.67;1.58;;;26.60;52.30;;;;;;5014446;28;20496;-64
2023/09/07 00:17:20;;;;;;;2.22;1.55;;;26.60;52.50;;;;;;5031197;28;20025;-63
2023/09/07 00:19:49;;;;;;;2.17;1.60;;;26.50;52.30;;;;;;5038512;28;20063;-63
2023/09/07 00:22:15;;;;;;;2.00;1.50;;;26.50;52.30;;;;;;5029779;28;20048;-63
2023/09/07 00:24:41;;;;;;;1.73;1.40;;;26.60;52.40;;;;;;5036425;28;20032;-63
2023/09/07 00:27:07;;;;;;;1.90;1.60;;;26.60;52.40;;;;;;5031177;28;20032;-65
2023/09/07 00:29:36;;;;;;;1.60;1.30;;;26.50;52.30;;;;;;5021508;28;20698;-63
2023/09/07 00:32:02;;;;;;;2.10;1.67;;;26.50;52.30;;;;;;5035291;28;20021;-65
2023/09/07 00:34:28;;;;;;;1.50;1.40;;;26.50;52.30;;;;;;5029301;28;20069;-66
2023/09/07 00:36:54;;;;;;;1.70;1.60;;;26.50;52.30;;;;;;5033899;28;20079;-63
2023/09/07 00:39:20;;;;;;;2.10;1.42;;;26.50;52.30;;;;;;5026369;28;20025;-64
2023/09/07 00:41:46;;;;;;;2.55;1.85;;;26.50;52.30;;;;;;5004593;28;20336;-64
2023/09/07 00:44:12;;;;;;;2.05;1.65;;;26.50;52.40;;;;;;5031792;28;20033;-66
2023/09/07 00:46:37;;;;;;;2.15;1.58;;;26.50;52.40;;;;;;5006111;28;20045;-62
2023/09/07 00:49:04;;;;;;;2.05;1.77;;;26.50;52.40;;;;;;5014200;28;20070;-64
2023/09/07 00:51:31;;;;;;;2.13;1.75;;;26.50;52.40;;;;;;5037249;28;20040;-65
2023/09/07 00:53:58;;;;;;;1.60;1.30;;;26.50;52.40;;;;;;4989577;28;20069;-65
2023/09/07 00:56:26;;;;;;;2.00;1.73;;;26.40;52.40;;;;;;5008876;28;20043;-63
2023/09/07 00:58:54;;;;;;;2.38;1.60;;;26.40;52.40;;;;;;5038358;28;20037;-63
2023/09/07 01:01:23;;;;;;;1.60;1.50;;;26.50;52.50;;;;;;5010390;28;20029;-65
2023/09/07 01:03:50;;;;;;;1.98;1.60;;;26.40;52.40;;;;;;5018828;28;20145;-65
2023/09/07 01:06:23;;;;;;;2.33;1.38;;;26.40;52.40;;;;;;5024626;28;20029;-65
2023/09/07 01:09:00;;;;;;;1.60;1.40;;;26.40;52.40;;;;;;5009323;28;20052;-65
2023/09/07 01:11:26;;;;;;;2.20;1.70;;;26.40;52.50;;;;;;5008113;28;20467;-64
2023/09/07 01:13:56;;;;;;;2.42;1.70;;;26.40;52.50;;;;;;5009270;28;20037;-64
2023/09/07 01:16:23;;;;;;;2.38;1.70;;;26.40;52.50;;;;;;5011728;28;20298;-63
2023/09/07 01:18:50;;;;;;;2.40;1.63;;;26.40;52.50;;;;;;5021668;28;20030;-63
2023/09/07 01:21:17;;;;;;;1.83;1.55;;;26.40;52.50;;;;;;5000580;28;20026;-63
2023/09/07 01:23:46;;;;;;;1.63;1.50;;;26.40;52.50;;;;;;5016041;28;20052;-63
2023/09/07 01:26:12;;;;;;;2.03;1.70;;;26.40;52.50;;;;;;5014354;28;20029;-65
2023/09/07 01:28:38;;;;;;;1.77;1.55;;;26.40;52.50;;;;;;4992771;28;20035;-64
2023/09/07 01:31:06;;;;;;;2.17;1.70;;;26.40;52.60;;;;;;5037675;28;20042;-63
2023/09/07 01:33:32;;;;;;;2.25;1.90;;;26.40;52.60;;;;;;5011543;28;20092;-64
2023/09/07 01:35:58;;;;;;;2.10;1.88;;;26.40;52.60;;;;;;5009146;28;20022;-63
2023/09/07 01:38:24;;;;;;;2.53;1.48;;;26.30;52.50;;;;;;5008843;28;20026;-64
2023/09/07 01:40:50;;;;;;;2.15;1.58;;;26.30;52.60;;;;;;5012820;28;20828;-62
2023/09/07 01:43:15;;;;;;;1.67;1.58;;;26.40;52.70;;;;;;5009434;28;20080;-66
2023/09/07 01:45:41;;;;;;;1.90;1.60;;;26.30;52.60;;;;;;5007057;28;20311;-64
2023/09/07 01:48:11;;;;;;;2.90;1.55;;;26.40;52.70;;;;;;5027375;28;20399;-64
2023/09/07 01:50:38;;;;;;;2.13;1.70;;;26.30;52.60;;;;;;5035906;28;20441;-65
2023/09/07 01:53:04;;;;;;;2.05;1.67;;;26.30;52.60;;;;;;5019952;28;20439;-63
2023/09/07 01:55:31;;;;;;;1.88;1.67;;;26.30;52.60;;;;;;4993184;28;20081;-63
2023/09/07 01:57:58;;;;;;;1.90;1.70;;;26.30;52.60;;;;;;5017785;28;20104;-63
2023/09/07 02:00:25;;;;;;;2.05;1.58;;;26.30;52.60;;;;;;5009029;28;20049;-63
2023/09/07 02:02:51;;;;;;;2.50;1.52;;;26.30;52.70;;;;;;5027558;28;20025;-63
2023/09/07 02:05:17;;;;;;;2.22;1.75;;;26.30;52.70;;;;;;4999858;28;20025;-63
2023/09/07 02:07:43;;;;;;;2.55;1.75;;;26.30;52.70;;;;;;5027808;28;20463;-64
2023/09/07 02:10:10;;;;;;;1.92;1.58;;;26.30;52.70;;;;;;5019678;28;20026;-65
2023/09/07 02:12:36;;;;;;;2.72;1.60;;;26.30;52.70;;;;;;5021478;28;20125;-66
2023/09/07 02:15:03;;;;;;;3.00;1.92;;;26.30;52.70;;;;;;5012835;28;20451;-64
2023/09/07 02:17:29;;;;;;;2.28;1.63;;;26.30;52.70;;;;;;5011730;28;20355;-65
2023/09/07 02:19:56;;;;;;;3.65;1.80;;;26.30;52.70;;;;;;5011309;28;20120;-62
2023/09/07 02:22:22;;;;;;;2.08;1.50;;;26.30;52.70;;;;;;5010506;28;20026;-65
2023/09/07 02:24:48;;;;;;;2.03;1.67;;;26.20;52.60;;;;;;5012768;28;20065;-64
2023/09/07 02:27:14;;;;;;;1.85;1.48;;;26.20;52.60;;;;;;5015678;28;20040;-64
2023/09/07 02:29:40;;;;;;;1.42;1.33;;;26.20;52.60;;;;;;5017362;28;20476;-66
2023/09/07 02:32:07;;;;;;;2.25;1.98;;;26.20;52.60;;;;;;5012316;28;20038;-66
2023/09/07 02:34:36;;;;;;;2.50;1.70;;;26.20;52.60;;;;;;5006544;28;20061;-64
2023/09/07 02:37:03;;;;;;;1.63;1.52;;;26.20;52.60;;;;;;5024100;28;20040;-65
2023/09/07 02:39:29;;;;;;;3.80;1.75;;;26.20;52.60;;;;;;5009836;28;20036;-63
2023/09/07 02:41:55;;;;;;;1.83;1.63;;;26.20;52.60;;;;;;5013067;28;20021;-63
2023/09/07 02:44:21;;;;;;;1.65;1.55;;;26.20;52.50;;;;;;5034513;28;20029;-65
2023/09/07 02:46:47;;;;;;;2.33;1.70;;;26.20;52.50;;;;;;5024709;28;20092;-66
2023/09/07 02:49:14;;;;;;;3.72;1.77;;;26.20;52.50;;;;;;5015225;28;20126;-64
2023/09/07 02:51:40;;;;;;;1.60;1.50;;;26.20;52.50;;;;;;5010657;28;20112;-65
2023/09/07 02:54:06;;;;;;;2.45;2.00;;;26.20;52.50;;;;;;5003394;28;20113;-64
2023/09/07 02:56:32;;;;;;;2.05;1.45;;;26.20;52.50;;;;;;5006553;28;20397;-62
2023/09/07 02:58:58;;;;;;;1.83;1.30;;;26.20;52.50;;;;;;4990681;28;20751;-63
2023/09/07 03:01:24;;;;;;;2.80;1.90;;;26.10;52.40;;;;;;5008853;28;20044;-64
2023/09/07 03:03:50;;;;;;;2.00;1.63;;;26.20;52.50;;;;;;5032317;28;20513;-64
2023/09/07 03:06:18;;;;;;;1.83;1.50;;;26.20;52.50;;;;;;5013357;28;20105;-65
2023/09/07 03:08:47;;;;;;;1.92;1.67;;;26.10;53.00;;;;;;5016144;28;20029;-64
2023/09/07 03:11:13;;;;;;;2.22;1.70;;;26.10;52.40;;;;;;5006629;28;20037;-64
2023/09/07 03:13:39;;;;;;;2.25;1.80;;;26.10;52.40;;;;;;5020176;28;20065;-64
2023/09/07 03:16:05;;;;;;;1.73;1.60;;;26.10;52.40;;;;;;5006617;28;20081;-63
2023/09/07 03:18:32;;;;;;;2.08;1.60;;;26.10;52.30;;;;;;5009888;28;20029;-63
2023/09/07 03:21:01;;;;;;;2.17;1.60;;;26.10;52.30;;;;;;5006346;28;20040;-65
2023/09/07 03:23:31;;;;;;;2.10;1.88;;;26.10;52.30;;;;;;5006838;28;20042;-64
2023/09/07 03:25:59;;;;;;;1.90;1.65;;;26.10;52.30;;;;;;5013253;28;20526;-63
2023/09/07 03:28:25;;;;;;;2.20;1.80;;;26.10;52.30;;;;;;5022713;28;20094;-64
2023/09/07 03:30:53;;;;;;;1.80;1.50;;;26.10;52.30;;;;;;5030342;28;20064;-64
2023/09/07 03:33:19;;;;;;;2.30;1.65;;;26.10;52.30;;;;;;5039918;28;20041;-64
2023/09/07 03:35:45;;;;;;;1.88;1.63;;;26.10;52.30;;;;;;5028974;28;20748;-63
2023/09/07 03:38:11;;;;;;;2.47;1.73;;;26.10;52.30;;;;;;5024685;28;20053;-66
2023/09/07 03:40:37;;;;;;;1.70;1.60;;;26.00;52.20;;;;;;5027478;28;20071;-62
2023/09/07 03:43:03;;;;;;;2.22;1.48;;;26.10;52.30;;;;;;5030055;28;20029;-66
2023/09/07 03:45:30;;;;;;;2.10;1.80;;;26.00;52.20;;;;;;5021553;28;20377;-64
2023/09/07 03:47:56;;;;;;;2.72;1.70;;;26.00;52.20;;;;;;5018565;28;20064;-63
2023/09/07 03:50:23;;;;;;;1.65;1.55;;;26.00;52.20;;;;;;5017559;28;20025;-65
2023/09/07 03:52:49;;;;;;;2.10;1.70;;;26.00;52.20;;;;;;5021007;28;20049;-62
2023/09/07 03:55:15;;;;;;;1.67;1.50;;;26.00;52.20;;;;;;5015346;28;20041;-66
2023/09/07 03:57:41;;;;;;;4.25;2.00;;;26.00;52.20;;;;;;5015135;28;20041;-64
2023/09/07 04:00:08;;;;;;;2.03;1.65;;;26.00;52.20;;;;;;5014296;28;20104;-62
2023/09/07 04:02:38;;;;;;;2.38;1.98;;;26.00;52.20;;;;;;5031567;28;20029;-63
2023/09/07 04:05:06;;;;;;;2.25;1.73;;;26.00;52.10;;;;;;5012541;28;20033;-64
2023/09/07 04:07:32;;;;;;;2.60;2.00;;;26.00;52.10;;;;;;5016209;28;20022;-65
2023/09/07 04:09:58;;;;;;;2.35;1.65;;;26.00;52.10;;;;;;5038993;28;20021;-63
2023/09/07 04:12:25;;;;;;;2.03;1.50;;;26.00;52.10;;;;;;5031822;28;20121;-67
2023/09/07 04:14:51;;;;;;;1.70;1.52;;;26.00;52.10;;;;;;5028401;28;20052;-63
2023/09/07 04:17:17;;;;;;;2.05;1.85;;;26.00;52.10;;;;;;5033894;28;20398;-62
2023/09/07 04:19:43;;;;;;;2.85;1.60;;;26.00;52.10;;;;;;5018463;28;20028;-66
2023/09/07 04:22:11;;;;;;;2.10;1.27;;;26.00;52.10;;;;;;5011786;28;20045;-63
2023/09/07 04:24:37;;;;;;;2.22;1.80;;;26.00;52.10;;;;;;5020349;28;20034;-64
2023/09/07 04:27:04;;;;;;;2.05;1.65;;;26.00;52.70;;;;;;5016010;28;20471;-64
2023/09/07 04:29:32;;;;;;;1.98;1.60;;;25.90;52.00;;;;;;5034013;28;20151;-65
2023/09/07 04:31:58;;;;;;;2.58;2.13;;;25.90;52.00;;;;;;5040944;28;20033;-64
2023/09/07 04:34:24;;;;;;;4.03;2.00;;;25.90;52.00;;;;;;5033171;28;20057;-64
2023/09/07 04:36:51;;;;;;;2.28;1.52;;;25.90;52.00;;;;;;5019576;28;20145;-63
2023/09/07 04:39:18;;;;;;;2.05;1.83;;;25.90;52.00;;;;;;5014219;28;20116;-65
2023/09/07 04:41:44;;;;;;;2.85;1.60;;;25.90;51.90;;;;;;5007857;28;20052;-64
2023/09/07 04:44:10;;;;;;;1.98;1.70;;;25.90;52.00;;;;;;5018169;28;20112;-63
2023/09/07 04:46:36;;;;;;;1.95;1.70;;;25.90;52.60;;;;;;5034090;28;20041;-64
2023/09/07 04:49:02;;;;;;;2.25;1.80;;;25.90;52.00;;;;;;5016432;28;20159;-63
2023/09/07 04:51:28;;;;;;;1.92;1.52;;;25.90;52.70;;;;;;5024535;28;20026;-64
2023/09/07 04:53:54;;;;;;;2.22;1.60;;;25.90;52.00;;;;;;5008175;28;20436;-63
2023/09/07 04:56:21;;;;;;;2.90;1.73;;;25.80;51.90;;;;;;5029567;28;20060;-63
2023/09/07 04:58:47;;;;;;;3.90;1.95;;;25.90;52.00;;;;;;5010579;28;20121;-63
2023/09/07 05:01:13;;;;;;;1.92;1.73;;;25.80;51.90;;;;;;5011953;28;20445;-66
2023/09/07 05:03:41;;;;;;;2.22;1.90;;;25.80;51.90;;;;;;5012782;28;20437;-64
2023/09/07 05:06:08;;;;;;;2.88;1.70;;;25.80;51.90;;;;;;5026656;28;20040;-68
2023/09/07 05:08:34;;;;;;;2.08;1.70;;;25.80;51.90;;;;;;5012689;28;20041;-65
2023/09/07 05:11:02;;;;;;;2.10;1.90;;;25.80;51.90;;;;;;5012542;28;20437;-65
2023/09/07 05:13:29;;;;;;;1.60;1.50;;;25.80;51.90;;;;;;5029518;28;20187;-66
2023/09/07 05:15:58;;;;;;;1.88;1.65;;;25.80;51.90;;;;;;5011055;28;20022;-66
2023/09/07 05:18:23;;;;;;;2.03;1.65;;;25.80;51.90;;;;;;5006808;28;20125;-65
2023/09/07 05:20:51;;;;;;;2.30;1.67;;;25.80;51.80;;;;;;5030014;28;20186;-66
2023/09/07 05:23:26;;;;;;;1.98;1.70;;;25.80;51.90;;;;;;5022195;28;20189;-64
2023/09/07 05:25:53;;;;;;;2.63;1.80;;;25.80;51.80;;;;;;5010829;28;20107;-64
2023/09/07 05:28:22;;;;;;;2.03;1.80;;;25.80;51.80;;;;;;5018278;28;20043;-65
2023/09/07 05:30:50;;;;;;;3.20;1.67;;;25.80;51.90;;;;;;5012437;28;20029;-63
2023/09/07 05:33:18;;;;;;;1.90;1.63;;;25.80;51.80;;;;;;5002459;28;20133;-64
2023/09/07 05:35:47;;;;;;;1.50;1.40;;;25.80;51.80;;;;;;5012078;28;20039;-65
2023/09/07 05:38:13;;;;;;;2.80;1.83;;;25.80;51.80;;;;;;5015579;28;20018;-67
2023/09/07 05:40:41;;;;;;;2.33;1.70;;;25.80;51.80;;;;;;5005238;28;20037;-63
2023/09/07 05:43:08;;;;;;;3.10;1.80;;;25.80;51.80;;;;;;5014557;28;20122;-65
2023/09/07 05:45:37;;;;;;;2.35;1.58;;;25.80;51.80;;;;;;5012886;28;20029;-65
2023/09/07 05:48:04;;;;;;;2.10;1.40;;;25.80;51.80;;;;;;5038765;28;20044;-65
2023/09/07 05:50:30;;;;;;;2.00;1.75;;;25.80;51.70;;;;;;5015901;28;20171;-66
2023/09/07 05:52:56;;;;;;;1.73;1.52;;;25.80;51.70;;;;;;5012079;28;20057;-65
2023/09/07 05:55:22;;;;;;;2.80;2.10;;;25.80;51.70;;;;;;5031417;28;20064;-66
2023/09/07 05:57:54;;;;;;;2.17;1.95;;;25.80;51.70;;;;;;5012466;28;20091;-65
2023/09/07 06:00:20;;;;;;;2.25;1.73;;;25.80;51.70;;;;;;5014026;28;20369;-65
2023/09/07 06:02:48;;;;;;;1.90;1.70;;;25.70;51.60;;;;;;5015503;28;20131;-65
2023/09/07 06:05:14;;;;;;;2.08;1.70;;;25.80;51.70;;;;;;5018487;28;20053;-64
2023/09/07 06:07:40;;;;;;;2.97;1.50;;;25.80;51.70;;;;;;5009967;28;20025;-67
2023/09/07 06:10:07;;;;;;;2.42;2.05;;;25.80;51.70;;;;;;5012625;28;20038;-64
2023/09/07 06:12:34;;;;;;;2.22;1.90;;;25.80;51.70;;;;;;5016698;28;20036;-64
2023/09/07 06:15:02;;;;;;;2.92;1.80;;;25.80;51.70;;;;;;5018022;28;20041;-63
2023/09/07 06:17:29;;;;;;;2.30;1.85;;;25.80;51.70;;;;;;5026587;28;20428;-64
2023/09/07 06:19:56;;;;;;;1.95;1.80;;;25.80;51.70;;;;;;5015722;28;20095;-64
2023/09/07 06:22:22;;;;;;;2.72;1.83;;;25.80;51.70;;;;;;5018479;28;20036;-63
2023/09/07 06:24:49;;;;;;;2.05;1.73;;;25.80;51.70;;;;;;5023894;28;20024;-65
2023/09/07 06:27:16;;;;;;;4.30;1.95;;;25.80;51.70;;;;;;5011768;28;20107;-66
2023/09/07 06:29:42;;;;;;;2.67;1.92;;;25.80;51.70;;;;;;5013141;28;20448;-63
2023/09/07 06:32:08;;;;;;;3.50;2.03;;;25.80;51.70;;;;;;5013855;28;20122;-63
2023/09/07 06:34:34;;;;;;;2.10;1.80;;;25.80;51.70;;;;;;5032947;28;20463;-62
2023/09/07 06:37:00;;;;;;;2.55;1.95;;;25.80;51.70;;;;;;5023945;28;20021;-64
2023/09/07 06:39:26;;;;;;;2.85;1.73;;;25.80;51.70;;;;;;5045493;28;20044;-63
2023/09/07 06:41:52;;;;;;;2.45;2.05;;;25.80;51.70;;;;;;5008737;28;20342;-64
2023/09/07 06:44:21;;;;;;;2.30;2.00;;;25.80;51.80;;;;;;5019244;28;20032;-64
2023/09/07 06:46:49;;;;;;;2.92;2.20;;;25.80;51.80;;;;;;5017916;28;20053;-66
2023/09/07 06:49:17;;;;;;;4.10;1.70;;;25.80;51.80;;;;;;5016772;28;20118;-63
2023/09/07 06:51:43;;;;;;;3.03;2.20;;;25.80;51.70;;;;;;5016247;28;20357;-63
2023/09/07 06:54:09;;;;;;;3.47;2.40;;;25.80;51.70;;;;;;5016417;28;20038;-63
2023/09/07 06:56:36;;;;;;;1.80;1.70;;;25.80;51.70;;;;;;5000140;28;20513;-62
2023/09/07 06:59:02;;;;;;;2.38;1.88;;;25.80;51.70;;;;;;5017037;28;20056;-65
2023/09/07 07:01:28;;;;;;;2.00;1.80;;;25.80;51.70;;;;;;5028638;28;20051;-66
2023/09/07 07:03:56;;;;;;;1.70;1.55;;;25.80;51.70;;;;;;5024596;28;20041;-65
2023/09/07 07:06:24;;;;;;;2.35;1.75;;;25.80;51.60;;;;;;5016981;28;20033;-65
2023/09/07 07:08:51;;;;;;;3.20;1.75;;;25.80;51.60;;;;;;5024238;28;20108;-66
2023/09/07 07:11:17;;;;;;;2.60;1.63;;;25.80;51.60;;;;;;5049923;28;20040;-68
2023/09/07 07:13:45;;;;;;;2.72;1.88;;;25.80;51.60;;;;;;5006171;28;20349;-66
2023/09/07 07:16:14;;;;;;;2.25;1.70;;;25.80;51.60;;;;;;5034220;28;20033;-65
2023/09/07 07:18:40;;;;;;;2.50;1.80;;;25.80;51.60;;;;;;5018710;28;20045;-66
2023/09/07 07:21:08;;;;;;;2.30;2.00;;;25.80;51.60;;;;;;5018357;28;20077;-67
2023/09/07 07:23:36;;;;;;;2.30;1.75;;;25.80;51.60;;;;;;5003714;28;20021;-65
2023/09/07 07:26:02;;;;;;;2.03;1.80;;;25.80;51.60;;;;;;5008092;28;20500;-65
2023/09/07 07:28:29;;;;;;;3.20;2.00;;;25.80;51.60;;;;;;5024689;28;20025;-64
2023/09/07 07:30:56;;;;;;;1.95;1.73;;;25.90;51.70;;;;;;5023642;28;20413;-64
2023/09/07 07:33:23;;;;;;;2.33;1.83;;;25.90;51.60;;;;;;5035034;28;20124;-66
2023/09/07 07:35:51;;;;;;;2.35;2.10;;;25.90;51.60;;;;;;4986303;28;20084;-65
2023/09/07 07:38:17;;;;;;;2.50;1.88;;;25.90;51.60;;;;;;5043630;28;20068;-65
2023/09/07 07:40:44;;;;;;;2.63;2.10;;;25.90;51.60;;;;;;5023031;28;20033;-66
2023/09/07 07:43:12;;;;;;;1.98;1.77;;;25.90;51.50;;;;;;5026958;28;20170;-65
2023/09/07 07:45:39;;;;;;;2.95;2.13;;;25.90;51.50;;;;;;5042798;28;20048;-66
2023/09/07 07:48:07;;;;;;;1.92;1.58;;;25.90;51.50;;;;;;5034425;28;20341;-65
2023/09/07 07:50:41;;;;;;;2.33;1.58;;;25.90;51.50;;;;;;5014136;28;20621;-64
2023/09/07 07:53:08;;;;;;;2.05;1.85;;;25.90;51.50;;;;;;5021040;28;20105;-63
2023/09/07 07:55:38;;;;;;;2.45;1.70;;;25.90;51.50;;;;;;5015771;28;20057;-63
2023/09/07 07:58:08;;;;;;;2.95;2.20;;;25.90;51.50;;;;;;5003795;28;20201;-66
2023/09/07 08:00:40;;;;;;;2.22;2.00;;;26.00;51.50;;;;;;5022169;28;20397;-65
2023/09/07 08:03:08;;;;;;;2.40;2.00;;;25.90;51.40;;;;;;5034709;28;20036;-66
2023/09/07 08:05:39;;;;;;;3.47;1.75;;;25.90;51.40;;;;;;5015282;28;20124;-64
2023/09/07 08:08:05;;;;;;;2.00;1.80;;;25.90;51.40;;;;;;5001966;28;20045;-63
2023/09/07 08:10:37;;;;;;;4.55;1.98;;;26.00;51.40;;;;;;5001062;28;20041;-64
2023/09/07 08:13:04;;;;;;;2.22;1.80;;;26.00;51.40;;;;;;5035138;28;20372;-64
2023/09/07 08:15:32;;;;;;;2.70;1.73;;;26.00;51.30;;;;;;5035921;28;20079;-65
2023/09/07 08:18:00;;;;;;;2.55;2.10;;;26.00;51.30;;;;;;5030632;28;20029;-65
2023/09/07 08:20:26;;;;;;;2.67;2.00;;;26.00;51.30;;;;;;5027777;28;20376;-65
2023/09/07 08:22:53;;;;;;;2.22;1.88;;;26.00;51.30;;;;;;5022240;28;20037;-65
2023/09/07 08:25:20;;;;;;;2.38;1.95;;;26.00;51.30;;;;;;5023970;28;20098;-64
2023/09/07 08:27:47;;;;;;;2.80;1.90;;;26.00;51.30;;;;;;5024522;28;20460;-63
2023/09/07 08:30:17;;;;;;;2.40;2.08;;;26.00;51.30;;;;;;5014395;28;20029;-65
2023/09/07 08:32:45;;;;;;;2.47;1.90;;;26.00;51.30;;;;;;5039039;28;20503;-65
2023/09/07 08:35:13;;;;;;;2.65;1.98;;;26.00;51.30;;;;;;5034707;28;20068;-63
2023/09/07 08:37:40;;;;;;;2.28;1.83;;;26.00;51.30;;;;;;5038586;28;20120;-65
2023/09/07 08:40:11;;;;;;;2.28;2.03;;;26.00;51.30;;;;;;5035676;28;20032;-64
2023/09/07 08:42:38;;;;;;;3.08;1.95;;;26.00;51.30;;;;;;5022783;28;20084;-65
2023/09/07 08:45:07;;;;;;;2.92;2.15;;;26.00;51.40;;;;;;5028655;28;20037;-65
2023/09/07 08:47:35;;;;;;;2.63;1.80;;;26.00;51.40;;;;;;4992317;28;20050;-66
2023/09/07 08:50:04;;;;;;;3.13;2.15;;;26.00;51.50;;;;;;4992073;28;20121;-66
2023/09/07 08:52:30;;;;;;;2.50;1.70;;;26.00;51.50;;;;;;4974100;28;20057;-63
2023/09/07 08:55:00;;;;;;;2.30;2.10;;;26.10;51.60;;;;;;4986857;28;20476;-64
2023/09/07 08:57:29;;;;;;;2.30;1.73;;;26.00;51.60;;;;;;4986930;28;20081;-67
2023/09/07 08:59:55;;;;;;;2.47;1.73;;;26.10;51.80;;;;;;4980863;28;20479;-69
2023/09/07 09:02:22;;;;;;;2.85;2.10;;;26.10;51.80;;;;;;4997797;28;20030;-68
2023/09/07 09:04:49;;;;;;;2.88;1.90;;;26.10;52.00;;;;;;4985899;28;20314;-68
2023/09/07 09:07:17;;;;;;;2.38;1.92;;;26.10;52.10;;;;;;4987211;28;20039;-67
2023/09/07 09:09:44;;;;;;;2.58;2.03;;;26.10;52.10;;;;;;4998010;28;20100;-68
2023/09/07 09:12:13;;;;;;;2.30;2.00;;;26.10;52.20;;;;;;4996541;28;20458;-67
2023/09/07 09:14:45;;;;;;;2.80;2.03;;;26.10;52.30;;;;;;4987951;28;20073;-67
2023/09/07 09:17:13;;;;;;;2.47;1.95;;;26.10;52.40;;;;;;5003087;28;20134;-68
2023/09/07 09:19:41;;;;;;;2.10;1.73;;;26.10;52.50;;;;;;4993411;28;20038;-66
2023/09/07 09:22:08;;;;;;;2.20;1.80;;;26.10;52.60;;;;;;4988176;28;20485;-64
2023/09/07 09:24:34;;;;;;;2.20;2.00;;;26.20;52.70;;;;;;4987553;28;20049;-66
2023/09/07 09:27:00;;;;;;;1.98;1.60;;;26.20;52.80;;;;;;4988083;28;20156;-67
2023/09/07 09:29:27;;;;;;;2.33;1.90;;;26.10;52.80;;;;;;4979106;28;20097;-66
2023/09/07 09:31:53;;;;;;;2.22;1.80;;;26.20;53.00;;;;;;4989482;28;20497;-65
2023/09/07 09:34:20;;;;;;;2.38;1.80;;;26.10;52.90;;;;;;5002495;28;20121;-66
2023/09/07 09:36:46;;;;;;;1.85;1.75;;;26.20;53.10;;;;;;4985831;28;20048;-66
2023/09/07 09:39:22;;;;;;;3.05;2.15;;;26.20;53.10;;;;;;4983710;28;20414;-65
2023/09/07 09:41:49;;;;;;;2.85;2.00;;;26.20;53.10;;;;;;4985345;28;20022;-64
2023/09/07 09:44:16;;;;;;;2.65;2.08;;;26.20;53.10;;;;;;4987279;28;20092;-67
2023/09/07 09:46:43;;;;;;;3.28;2.10;;;26.20;53.20;;;;;;5000344;28;20048;-67
2023/09/07 09:49:13;;;;;;;2.40;1.75;;;26.20;53.30;;;;;;5036640;28;20128;-65
2023/09/07 09:51:39;;;;;;;2.35;1.80;;;26.20;53.30;;;;;;5041508;28;20100;-67
2023/09/07 09:54:06;;;;;;;2.47;2.03;;;26.20;53.40;;;;;;5043293;28;20044;-68
2023/09/07 09:56:32;;;;;;;2.10;1.90;;;26.20;53.40;;;;;;5040453;28;20025;-65
2023/09/07 09:58:58;;;;;;;2.30;1.95;;;26.20;53.40;;;;;;5020907;28;20112;-67
2023/09/07 10:01:24;;;;;;;2.60;1.73;;;26.20;53.50;;;;;;5021072;28;20021;-66
2023/09/07 10:03:51;;;;;;;2.70;2.00;;;26.20;53.50;;;;;;5042695;28;20075;-67
2023/09/07 10:06:24;;;;;;;2.35;1.80;;;26.20;53.50;;;;;;5040974;28;20129;-64
2023/09/07 10:09:10;;;;;;;2.25;2.00;;;26.20;53.50;;;;;;5037490;28;20386;-65
2023/09/07 10:11:38;;;;;;;2.30;1.83;;;26.20;53.50;;;;;;5043878;28;20021;-67
2023/09/07 10:14:05;;;;;;;1.92;1.67;;;26.20;53.40;;;;;;5041426;28;20136;-67
2023/09/07 10:16:51;;;;;;;2.42;1.83;;;26.30;53.40;;;;;;5039062;28;20096;-67
2023/09/07 10:19:22;;;;;;;1.83;1.60;;;26.20;53.30;;;;;;5040413;28;20444;-67
2023/09/07 10:21:48;;;;;;;2.50;1.73;;;26.20;53.20;;;;;;5042719;28;20047;-64
2023/09/07 10:24:28;;;;;;;2.22;1.90;;;26.30;53.10;;;;;;5034425;28;20017;-64
2023/09/07 10:27:07;;;;;;;2.25;1.80;;;26.30;53.00;;;;;;5038302;28;20117;-66
2023/09/07 10:29:50;;;;;;;1.90;1.70;;;26.30;52.80;;;;;;5008438;28;20033;-66
2023/09/07 10:32:16;;;;;;;2.10;1.85;;;26.30;52.70;;;;;;5029721;28;20134;-61
2023/09/07 10:34:43;;;;;;;2.22;1.73;;;26.30;52.70;;;;;;5012700;28;20210;-65
2023/09/07 10:37:13;;;;;;;1.65;1.50;;;26.30;52.70;;;;;;5033015;28;20105;-65
2023/09/07 10:39:42;;;;;;;2.83;2.00;;;26.40;52.90;;;;;;5033625;28;20405;-64
2023/09/07 10:42:19;;;;;;;2.03;1.83;;;26.40;52.90;;;;;;5010444;28;20437;-64
2023/09/07 10:44:45;;;;;;;2.38;1.60;;;26.40;52.90;;;;;;5029514;28;20048;-64
2023/09/07 10:47:12;;;;;;;2.22;1.80;;;26.40;52.90;;;;;;5031793;28;20325;-64
2023/09/07 10:49:39;;;;;;;2.90;1.67;;;26.40;52.90;;;;;;5013858;28;20133;-63
2023/09/07 10:52:05;;;;;;;2.15;1.70;;;26.40;52.80;;;;;;5015725;28;20033;-65
2023/09/07 10:54:31;;;;;;;3.47;1.80;;;26.50;52.90;;;;;;5021484;28;20149;-65
2023/09/07 10:57:07;;;;;;;2.05;1.70;;;26.50;53.40;;;;;;5032493;28;20376;-67
2023/09/07 10:59:33;;;;;;;4.43;2.25;;;26.50;52.90;;;;;;5035520;28;20091;-65
2023/09/07 11:02:07;;;;;;;2.00;1.60;;;26.60;52.90;;;;;;5042122;28;20116;-67
2023/09/07 11:04:33;;;;;;;2.53;2.00;;;26.60;52.80;;;;;;5033187;28;20040;-68
2023/09/07 11:07:00;;;;;;;1.98;1.60;;;26.60;52.70;;;;;;5035378;28;20028;-65
2023/09/07 11:09:26;;;;;;;2.35;1.80;;;26.70;52.60;;;;;;5029291;28;20107;-67
2023/09/07 11:11:52;;;;;;;2.20;1.95;;;26.70;52.40;;;;;;5025835;28;20084;-66
2023/09/07 11:14:22;;;;;;;1.70;1.52;;;26.80;52.30;;;;;;5032563;28;20044;-67
2023/09/07 11:16:48;;;;;;;2.03;1.65;;;26.90;52.20;;;;;;5032044;28;20073;-67
2023/09/07 11:19:18;;;;;;;2.60;2.10;;;26.90;52.00;;;;;;5029510;28;20116;-67
2023/09/07 11:21:44;;;;;;;1.83;1.50;;;27.00;51.80;;;;;;5032588;28;20033;-67
2023/09/07 11:24:10;;;;;;;1.77;1.60;;;27.10;51.70;;;;;;5031327;28;20033;-65
2023/09/07 11:26:46;;;;;;;1.95;1.48;;;27.10;51.50;;;;;;5030822;28;20056;-65
2023/09/07 11:29:15;;;;;;;1.83;1.50;;;27.20;51.20;;;;;;5027336;28;20321;-65
2023/09/07 11:31:42;;;;;;;1.77;1.60;;;27.30;51.10;;;;;;5008913;28;20073;-64
2023/09/07 11:34:12;;;;;;;2.35;1.60;;;27.30;50.90;;;;;;5029069;28;20046;-66
2023/09/07 11:36:40;;;;;;;1.88;1.67;;;27.40;50.80;;;;;;5029014;28;20045;-65
2023/09/07 11:39:11;;;;;;;1.52;1.42;;;27.40;50.60;;;;;;5031315;28;20059;-67
2023/09/07 11:41:42;;;;;;;3.42;2.13;;;27.50;50.50;;;;;;5034671;28;20068;-65
2023/09/07 11:44:08;;;;;;;2.05;1.50;;;27.60;50.20;;;;;;5008840;28;20440;-66
2023/09/07 11:46:35;;;;;;;1.77;1.63;;;27.60;50.10;;;;;;5033196;28;20045;-66
2023/09/07 11:49:00;;;;;;;1.80;1.70;;;27.60;50.00;;;;;;5032109;28;20048;-67
2023/09/07 11:51:26;;;;;;;1.60;1.50;;;27.70;49.90;;;;;;5031434;28;20025;-67
2023/09/07 11:53:52;;;;;;;2.03;1.63;;;27.70;49.80;;;;;;5032147;28;20144;-67
2023/09/07 11:56:18;;;;;;;1.85;1.67;;;27.80;49.70;;;;;;5030330;28;20106;-66
2023/09/07 11:58:44;;;;;;;2.22;1.90;;;27.80;49.50;;;;;;5032176;28;20072;-64
2023/09/07 12:01:10;;;;;;;1.90;1.52;;;27.90;49.40;;;;;;5039555;28;20130;-67
2023/09/07 12:03:36;;;;;;;3.47;1.60;;;27.90;49.20;;;;;;5032830;28;20118;-69
2023/09/07 12:06:02;;;;;;;1.90;1.38;;;27.90;49.10;;;;;;5026330;28;20029;-69
2023/09/07 12:08:28;;;;;;;2.20;1.88;;;27.90;49.10;;;;;;5029951;28;20013;-68
2023/09/07 12:10:54;;;;;;;2.08;1.52;;;28.00;49.10;;;;;;5005581;28;20074;-67
2023/09/07 12:13:20;;;;;;;2.53;1.83;;;28.00;49.00;;;;;;5041445;28;20093;-66
2023/09/07 12:15:46;;;;;;;2.03;1.73;;;28.00;48.90;;;;;;5029862;28;20037;-66
2023/09/07 12:18:12;;;;;;;1.90;1.50;;;28.00;48.70;;;;;;5034325;28;20044;-68
2023/09/07 12:20:38;;;;;;;1.90;1.50;;;28.00;48.70;;;;;;5031105;28;20040;-67
2023/09/07 12:23:04;;;;;;;2.17;1.65;;;28.00;48.60;;;;;;5033169;28;20365;-66
2023/09/07 12:25:30;;;;;;;2.28;1.83;;;28.10;48.50;;;;;;5030926;28;20373;-67
2023/09/07 12:27:56;;;;;;;2.08;1.40;;;28.10;48.40;;;;;;5030477;28;20029;-70
2023/09/07 12:30:24;;;;;;;3.55;2.00;;;28.10;49.00;;;;;;5031242;28;20064;-65
2023/09/07 12:32:50;;;;;;;2.13;1.65;;;28.10;48.30;;;;;;5027943;28;20320;-66
2023/09/07 12:35:17;;;;;;;2.17;1.77;;;28.20;48.20;;;;;;5030461;28;20045;-67
2023/09/07 12:37:43;;;;;;;2.22;1.83;;;28.20;48.10;;;;;;5031700;28;20079;-67
2023/09/07 12:40:13;;;;;;;2.40;1.77;;;28.20;48.10;;;;;;5030309;28;20069;-66
2023/09/07 12:42:42;;;;;;;2.55;2.00;;;28.20;48.00;;;;;;5028628;28;20025;-68
2023/09/07 12:45:13;;;;;;;1.85;1.48;;;28.20;47.90;;;;;;5029287;28;20029;-66
2023/09/07 12:47:40;;;;;;;2.28;1.83;;;28.20;47.90;;;;;;5030780;28;20103;-65